Ada, Minnesota
Current Conditions -  °F | °C
As of 4:55 AM on Friday 19 Dec 2014 (Local Time) from K3N8 Reporting Station
Light Snow Light Snow  
Wind Chill: -12°   Ceiling: 1000
Heat Index: -6°   Visibility: 5mi
Dew Point: -8°   Wind: 9mph
Humidity: 88%   Direction: 160°SSE
Pressure: 30.11"   Gusts: NA
Location:  47.3°N, 96.52°W
Report Text: K3N8 191055Z AUTO 16008KT 5SM -SN OVC010 M06/M08 A3011 RMK AO2 T10621079
Loading
Personal Weather Stations






























Interactive Weather Map New forecast layout! Learn more

10-Day Weather Forecast

Advertisements
Track Severe Weather on mobile